sensor_id;sensor_type;location;lat;lon;timestamp;P1;durP1;ratioP1;P2;durP2;ratioP2
34521;SDS011;25561;48.888;8.736;2023-02-01T06:49:40;11.10;;;5.15;;
34521;SDS011;25561;48.888;8.736;2023-02-01T06:52:42;12.60;;;5.78;;
34521;SDS011;25561;48.888;8.736;2023-02-01T06:55:59;17.17;;;6.40;;
34521;SDS011;25561;48.888;8.736;2023-02-01T06:59:03;13.88;;;5.90;;
34521;SDS011;25561;48.888;8.736;2023-02-01T07:02:08;19.15;;;5.78;;
34521;SDS011;25561;48.888;8.736;2023-02-01T07:05:12;11.18;;;5.18;;
34521;SDS011;25561;48.888;8.736;2023-02-01T07:08:14;11.73;;;5.55;;
34521;SDS011;25561;48.888;8.736;2023-02-01T07:11:17;18.98;;;6.07;;
34521;SDS011;25561;48.888;8.736;2023-02-01T07:14:20;15.23;;;5.35;;
34521;SDS011;25561;48.888;8.736;2023-02-01T07:17:22;12.95;;;5.55;;
34521;SDS011;25561;48.888;8.736;2023-02-01T07:20:25;18.17;;;5.20;;
34521;SDS011;25561;48.888;8.736;2023-02-01T07:23:27;22.00;;;6.18;;
34521;SDS011;25561;48.888;8.736;2023-02-01T07:26:29;16.10;;;5.78;;
34521;SDS011;25561;48.888;8.736;2023-02-01T07:29:32;27.80;;;5.82;;
34521;SDS011;25561;48.888;8.736;2023-02-01T07:32:34;16.75;;;5.45;;
34521;SDS011;25561;48.888;8.736;2023-02-01T07:35:36;14.13;;;5.20;;
34521;SDS011;25561;48.888;8.736;2023-02-01T07:38:38;14.70;;;5.10;;
34521;SDS011;25561;48.888;8.736;2023-02-01T07:41:40;15.70;;;5.38;;
34521;SDS011;25561;48.888;8.736;2023-02-01T07:44:42;20.55;;;4.93;;
34521;SDS011;25561;48.888;8.736;2023-02-01T07:47:44;25.67;;;5.25;;
34521;SDS011;25561;48.888;8.736;2023-02-01T07:50:46;17.17;;;4.90;;
34521;SDS011;25561;48.888;8.736;2023-02-01T07:53:48;19.30;;;5.80;;
34521;SDS011;25561;48.888;8.736;2023-02-01T07:56:50;14.70;;;5.78;;
34521;SDS011;25561;48.888;8.736;2023-02-01T07:59:51;17.00;;;5.53;;
34521;SDS011;25561;48.888;8.736;2023-02-01T08:03:14;17.52;;;4.35;;
34521;SDS011;25561;48.888;8.736;2023-02-01T08:06:17;21.70;;;5.28;;
34521;SDS011;25561;48.888;8.736;2023-02-01T08:09:21;19.13;;;4.45;;
34521;SDS011;25561;48.888;8.736;2023-02-01T08:12:23;18.42;;;4.30;;
34521;SDS011;25561;48.888;8.736;2023-02-01T08:15:27;22.55;;;4.70;;
34521;SDS011;25561;48.888;8.736;2023-02-01T08:18:29;18.48;;;4.20;;
34521;SDS011;25561;48.888;8.736;2023-02-01T08:21:31;18.58;;;4.57;;
34521;SDS011;25561;48.888;8.736;2023-02-01T08:24:40;20.55;;;3.80;;
34521;SDS011;25561;48.888;8.736;2023-02-01T08:27:42;28.08;;;4.97;;
34521;SDS011;25561;48.888;8.736;2023-02-01T08:30:45;18.30;;;4.07;;
34521;SDS011;25561;48.888;8.736;2023-02-01T08:33:48;28.67;;;4.47;;
34521;SDS011;25561;48.888;8.736;2023-02-01T08:36:53;27.40;;;4.85;;
34521;SDS011;25561;48.888;8.736;2023-02-01T08:40:03;16.63;;;4.72;;
34521;SDS011;25561;48.888;8.736;2023-02-01T08:43:05;21.92;;;5.72;;
34521;SDS011;25561;48.888;8.736;2023-02-01T08:46:08;21.27;;;3.70;;
34521;SDS011;25561;48.888;8.736;2023-02-01T08:49:10;17.48;;;4.53;;
34521;SDS011;25561;48.888;8.736;2023-02-01T08:52:12;15.13;;;4.03;;
34521;SDS011;25561;48.888;8.736;2023-02-01T08:55:16;21.02;;;4.20;;
34521;SDS011;25561;48.888;8.736;2023-02-01T08:58:19;17.80;;;4.38;;
34521;SDS011;25561;48.888;8.736;2023-02-01T09:01:22;16.45;;;3.40;;
34521;SDS011;25561;48.888;8.736;2023-02-01T09:04:26;15.75;;;4.88;;
34521;SDS011;25561;48.888;8.736;2023-02-01T09:10:39;31.85;;;4.22;;
34521;SDS011;25561;48.888;8.736;2023-02-01T09:13:44;25.90;;;4.53;;
34521;SDS011;25561;48.888;8.736;2023-02-01T09:16:47;22.83;;;3.25;;
34521;SDS011;25561;48.888;8.736;2023-02-01T09:19:48;16.80;;;3.67;;
34521;SDS011;25561;48.888;8.736;2023-02-01T09:22:51;22.30;;;3.40;;
34521;SDS011;25561;48.888;8.736;2023-02-01T09:25:58;19.65;;;3.22;;
34521;SDS011;25561;48.888;8.736;2023-02-01T09:29:01;23.70;;;4.40;;
34521;SDS011;25561;48.888;8.736;2023-02-01T09:32:04;20.10;;;3.25;;
34521;SDS011;25561;48.888;8.736;2023-02-01T09:35:07;18.98;;;4.38;;
34521;SDS011;25561;48.888;8.736;2023-02-01T09:38:09;23.30;;;3.72;;
34521;SDS011;25561;48.888;8.736;2023-02-01T09:44:53;17.50;;;3.17;;
34521;SDS011;25561;48.888;8.736;2023-02-01T09:48:20;21.92;;;3.67;;
34521;SDS011;25561;48.888;8.736;2023-02-01T09:51:27;20.33;;;2.70;;
34521;SDS011;25561;48.888;8.736;2023-02-01T09:54:39;19.55;;;3.35;;
34521;SDS011;25561;48.888;8.736;2023-02-01T09:57:50;23.05;;;3.50;;
34521;SDS011;25561;48.888;8.736;2023-02-01T10:01:00;17.65;;;3.00;;
34521;SDS011;25561;48.888;8.736;2023-02-01T10:04:08;20.35;;;3.70;;
34521;SDS011;25561;48.888;8.736;2023-02-01T10:07:17;33.63;;;4.82;;
34521;SDS011;25561;48.888;8.736;2023-02-01T10:10:30;18.77;;;3.58;;
34521;SDS011;25561;48.888;8.736;2023-02-01T10:13:46;16.58;;;3.55;;
34521;SDS011;25561;48.888;8.736;2023-02-01T10:21:17;19.92;;;3.60;;
34521;SDS011;25561;48.888;8.736;2023-02-01T10:24:46;21.85;;;4.03;;
34521;SDS011;25561;48.888;8.736;2023-02-01T10:28:10;20.58;;;4.20;;
34521;SDS011;25561;48.888;8.736;2023-02-01T10:31:20;12.48;;;2.63;;
34521;SDS011;25561;48.888;8.736;2023-02-01T10:34:27;25.23;;;3.60;;
34521;SDS011;25561;48.888;8.736;2023-02-01T10:37:35;22.63;;;3.97;;
34521;SDS011;25561;48.888;8.736;2023-02-01T10:40:38;10.25;;;2.60;;
34521;SDS011;25561;48.888;8.736;2023-02-01T10:43:41;22.58;;;3.28;;
34521;SDS011;25561;48.888;8.736;2023-02-01T10:46:44;21.70;;;3.50;;
34521;SDS011;25561;48.888;8.736;2023-02-01T10:49:51;23.70;;;3.92;;
34521;SDS011;25561;48.888;8.736;2023-02-01T10:53:18;19.15;;;3.63;;
34521;SDS011;25561;48.888;8.736;2023-02-01T10:56:27;26.02;;;3.55;;
34521;SDS011;25561;48.888;8.736;2023-02-01T10:59:29;26.02;;;3.83;;
34521;SDS011;25561;48.888;8.736;2023-02-01T11:02:35;16.95;;;3.38;;
34521;SDS011;25561;48.888;8.736;2023-02-01T11:05:45;12.98;;;3.10;;
34521;SDS011;25561;48.888;8.736;2023-02-01T11:08:51;22.13;;;3.47;;
34521;SDS011;25561;48.888;8.736;2023-02-01T11:11:56;22.63;;;3.35;;
34521;SDS011;25561;48.888;8.736;2023-02-01T11:15:31;20.67;;;4.07;;
34521;SDS011;25561;48.888;8.736;2023-02-01T11:18:26;19.08;;;3.83;;
34521;SDS011;25561;48.888;8.736;2023-02-01T11:21:30;29.40;;;3.78;;
34521;SDS011;25561;48.888;8.736;2023-02-01T11:24:35;15.82;;;2.92;;
34521;SDS011;25561;48.888;8.736;2023-02-01T11:27:39;21.42;;;3.08;;
34521;SDS011;25561;48.888;8.736;2023-02-01T11:30:54;16.52;;;2.72;;
34521;SDS011;25561;48.888;8.736;2023-02-01T11:34:05;13.52;;;3.40;;
34521;SDS011;25561;48.888;8.736;2023-02-01T11:37:15;20.88;;;3.00;;
34521;SDS011;25561;48.888;8.736;2023-02-01T11:40:36;17.83;;;3.05;;
34521;SDS011;25561;48.888;8.736;2023-02-01T11:43:56;17.30;;;3.78;;
34521;SDS011;25561;48.888;8.736;2023-02-01T11:47:31;21.40;;;2.97;;
34521;SDS011;25561;48.888;8.736;2023-02-01T11:50:27;21.00;;;3.72;;
34521;SDS011;25561;48.888;8.736;2023-02-01T11:57:21;25.60;;;3.92;;
34521;SDS011;25561;48.888;8.736;2023-02-01T12:07:49;24.05;;;4.03;;
34521;SDS011;25561;48.888;8.736;2023-02-01T12:14:36;27.55;;;3.30;;
34521;SDS011;25561;48.888;8.736;2023-02-01T12:17:52;21.45;;;3.80;;
34521;SDS011;25561;48.888;8.736;2023-02-01T12:21:17;19.65;;;3.40;;
34521;SDS011;25561;48.888;8.736;2023-02-01T12:28:34;27.02;;;4.22;;
34521;SDS011;25561;48.888;8.736;2023-02-01T12:32:00;32.65;;;4.00;;
34521;SDS011;25561;48.888;8.736;2023-02-01T12:38:53;19.67;;;4.10;;
34521;SDS011;25561;48.888;8.736;2023-02-01T12:42:32;23.15;;;4.32;;
34521;SDS011;25561;48.888;8.736;2023-02-01T12:45:46;23.15;;;4.05;;
34521;SDS011;25561;48.888;8.736;2023-02-01T12:48:55;20.58;;;3.80;;
34521;SDS011;25561;48.888;8.736;2023-02-01T12:52:04;24.75;;;3.90;;
34521;SDS011;25561;48.888;8.736;2023-02-01T12:55:43;21.98;;;3.63;;
34521;SDS011;25561;48.888;8.736;2023-02-01T12:58:43;18.60;;;3.22;;
34521;SDS011;25561;48.888;8.736;2023-02-01T13:01:54;14.88;;;3.15;;
34521;SDS011;25561;48.888;8.736;2023-02-01T13:05:34;29.70;;;4.53;;
34521;SDS011;25561;48.888;8.736;2023-02-01T13:08:26;21.65;;;3.40;;
34521;SDS011;25561;48.888;8.736;2023-02-01T13:11:40;18.70;;;3.25;;
34521;SDS011;25561;48.888;8.736;2023-02-01T13:14:48;17.20;;;3.47;;
34521;SDS011;25561;48.888;8.736;2023-02-01T13:17:55;16.30;;;2.97;;
34521;SDS011;25561;48.888;8.736;2023-02-01T13:21:03;21.45;;;3.53;;
34521;SDS011;25561;48.888;8.736;2023-02-01T13:27:34;24.38;;;3.67;;
34521;SDS011;25561;48.888;8.736;2023-02-01T13:30:38;23.92;;;4.32;;
34521;SDS011;25561;48.888;8.736;2023-02-01T13:37:39;20.70;;;3.67;;
34521;SDS011;25561;48.888;8.736;2023-02-01T13:41:32;30.73;;;4.05;;
34521;SDS011;25561;48.888;8.736;2023-02-01T13:44:29;13.70;;;3.08;;
34521;SDS011;25561;48.888;8.736;2023-02-01T13:47:38;17.92;;;3.83;;
34521;SDS011;25561;48.888;8.736;2023-02-01T13:50:42;17.85;;;4.05;;
34521;SDS011;25561;48.888;8.736;2023-02-01T13:53:44;27.02;;;4.18;;
34521;SDS011;25561;48.888;8.736;2023-02-01T13:56:48;17.75;;;3.42;;
34521;SDS011;25561;48.888;8.736;2023-02-01T13:59:51;23.40;;;4.18;;
34521;SDS011;25561;48.888;8.736;2023-02-01T14:06:42;18.13;;;3.92;;
34521;SDS011;25561;48.888;8.736;2023-02-01T14:09:32;25.92;;;4.05;;
34521;SDS011;25561;48.888;8.736;2023-02-01T14:12:46;16.42;;;3.95;;
34521;SDS011;25561;48.888;8.736;2023-02-01T14:19:07;12.98;;;3.70;;
34521;SDS011;25561;48.888;8.736;2023-02-01T14:22:32;24.00;;;4.10;;
34521;SDS011;25561;48.888;8.736;2023-02-01T14:28:40;21.35;;;3.97;;
34521;SDS011;25561;48.888;8.736;2023-02-01T14:32:16;21.73;;;3.47;;
34521;SDS011;25561;48.888;8.736;2023-02-01T14:35:21;20.88;;;4.10;;
34521;SDS011;25561;48.888;8.736;2023-02-01T14:38:27;30.15;;;3.83;;
34521;SDS011;25561;48.888;8.736;2023-02-01T14:41:32;28.23;;;4.07;;
34521;SDS011;25561;48.888;8.736;2023-02-01T14:44:36;19.45;;;4.13;;
34521;SDS011;25561;48.888;8.736;2023-02-01T14:47:38;18.42;;;3.63;;
34521;SDS011;25561;48.888;8.736;2023-02-01T14:50:44;26.80;;;4.10;;
34521;SDS011;25561;48.888;8.736;2023-02-01T14:53:48;23.50;;;3.30;;
34521;SDS011;25561;48.888;8.736;2023-02-01T14:56:52;21.85;;;3.80;;
34521;SDS011;25561;48.888;8.736;2023-02-01T14:59:59;16.92;;;3.40;;
34521;SDS011;25561;48.888;8.736;2023-02-01T15:03:22;25.17;;;3.17;;
34521;SDS011;25561;48.888;8.736;2023-02-01T15:06:49;19.02;;;2.95;;
34521;SDS011;25561;48.888;8.736;2023-02-01T15:09:54;23.33;;;3.30;;
34521;SDS011;25561;48.888;8.736;2023-02-01T15:12:59;27.80;;;4.53;;
34521;SDS011;25561;48.888;8.736;2023-02-01T15:16:03;15.65;;;3.45;;
34521;SDS011;25561;48.888;8.736;2023-02-01T15:19:14;15.73;;;3.35;;
34521;SDS011;25561;48.888;8.736;2023-02-01T15:22:18;21.77;;;3.35;;
34521;SDS011;25561;48.888;8.736;2023-02-01T15:25:21;25.67;;;3.60;;
34521;SDS011;25561;48.888;8.736;2023-02-01T15:28:26;21.40;;;3.22;;
34521;SDS011;25561;48.888;8.736;2023-02-01T15:31:44;15.73;;;3.58;;
34521;SDS011;25561;48.888;8.736;2023-02-01T15:34:49;28.10;;;3.53;;
34521;SDS011;25561;48.888;8.736;2023-02-01T15:37:51;17.60;;;3.90;;
34521;SDS011;25561;48.888;8.736;2023-02-01T15:41:10;19.33;;;4.32;;
34521;SDS011;25561;48.888;8.736;2023-02-01T15:47:29;29.83;;;3.72;;
34521;SDS011;25561;48.888;8.736;2023-02-01T15:50:32;35.30;;;4.68;;
34521;SDS011;25561;48.888;8.736;2023-02-01T15:53:34;21.15;;;3.42;;
34521;SDS011;25561;48.888;8.736;2023-02-01T15:56:37;25.00;;;4.15;;
34521;SDS011;25561;48.888;8.736;2023-02-01T15:59:41;11.43;;;2.83;;
34521;SDS011;25561;48.888;8.736;2023-02-01T16:03:01;27.55;;;3.63;;
34521;SDS011;25561;48.888;8.736;2023-02-01T16:06:07;19.55;;;3.10;;
34521;SDS011;25561;48.888;8.736;2023-02-01T16:09:12;22.08;;;3.70;;
34521;SDS011;25561;48.888;8.736;2023-02-01T16:12:21;15.80;;;3.35;;
34521;SDS011;25561;48.888;8.736;2023-02-01T16:15:29;27.20;;;4.03;;
34521;SDS011;25561;48.888;8.736;2023-02-01T16:18:32;23.02;;;3.60;;
34521;SDS011;25561;48.888;8.736;2023-02-01T16:21:34;29.40;;;4.78;;
34521;SDS011;25561;48.888;8.736;2023-02-01T16:24:36;19.10;;;4.40;;
34521;SDS011;25561;48.888;8.736;2023-02-01T16:27:37;32.28;;;4.18;;
34521;SDS011;25561;48.888;8.736;2023-02-01T16:30:39;21.67;;;3.25;;
34521;SDS011;25561;48.888;8.736;2023-02-01T16:33:41;16.63;;;3.60;;
34521;SDS011;25561;48.888;8.736;2023-02-01T16:36:43;20.27;;;3.53;;
34521;SDS011;25561;48.888;8.736;2023-02-01T16:39:52;28.85;;;3.30;;
34521;SDS011;25561;48.888;8.736;2023-02-01T16:42:54;27.67;;;4.13;;
34521;SDS011;25561;48.888;8.736;2023-02-01T16:45:59;27.30;;;4.18;;
34521;SDS011;25561;48.888;8.736;2023-02-01T16:49:04;26.95;;;3.10;;
34521;SDS011;25561;48.888;8.736;2023-02-01T16:52:08;25.65;;;3.53;;
34521;SDS011;25561;48.888;8.736;2023-02-01T16:55:16;19.08;;;3.30;;
34521;SDS011;25561;48.888;8.736;2023-02-01T16:58:20;19.85;;;3.28;;
